Time;durP1;ratioP1;P1;durP2;ratioP2;P2;SDS_P1;SDS_P2;PMS_P1;PMS_P2;Temp;Humidity;BMP_temperature;BMP_pressure;BME280_temperature;BME280_humidity;BME280_pressure;Samples;Min_cycle;Max_cycle;Signal;HPM_P1;HPM_P2
2021/07/04 00:02:16;;;;;;;22.87;20.83;;;18.90;99.90;;;;;;5048991;28;20471;-71
2021/07/04 00:04:43;;;;;;;25.57;23.17;;;18.90;99.90;;;;;;5051250;28;20460;-69
2021/07/04 00:07:13;;;;;;;22.83;21.03;;;18.90;99.90;;;;;;5051597;28;20464;-69
2021/07/04 00:09:40;;;;;;;25.63;23.70;;;18.90;99.90;;;;;;5053929;28;20516;-69
2021/07/04 00:12:09;;;;;;;25.93;23.60;;;18.90;99.90;;;;;;5052345;28;20828;-69
2021/07/04 00:14:36;;;;;;;25.93;23.93;;;19.00;99.90;;;;;;5055427;28;20462;-69
2021/07/04 00:17:04;;;;;;;24.33;22.33;;;19.00;99.90;;;;;;5046106;28;20463;-71
2021/07/04 00:19:34;;;;;;;24.07;22.17;;;19.00;99.90;;;;;;5052423;28;20475;-69
2021/07/04 00:22:01;;;;;;;24.03;22.23;;;19.10;99.90;;;;;;5052464;28;20470;-71
2021/07/04 00:24:29;;;;;;;22.00;20.47;;;19.10;99.90;;;;;;5054198;28;21462;-70
2021/07/04 00:26:56;;;;;;;24.60;22.07;;;19.00;99.90;;;;;;5050307;28;20490;-68
2021/07/04 00:29:23;;;;;;;25.13;23.17;;;18.90;99.90;;;;;;5054362;28;20493;-69
2021/07/04 00:31:50;;;;;;;24.93;22.83;;;18.80;99.90;;;;;;5049875;28;20514;-71
2021/07/04 00:34:16;;;;;;;26.10;24.10;;;18.60;99.90;;;;;;5050571;28;20578;-68
2021/07/04 00:36:45;;;;;;;26.27;23.70;;;18.50;99.90;;;;;;5052712;28;20830;-69
2021/07/04 00:39:11;;;;;;;24.67;22.67;;;18.50;99.90;;;;;;5054196;28;20505;-70
2021/07/04 00:41:38;;;;;;;25.20;22.77;;;18.40;99.90;;;;;;5053654;28;20469;-69
2021/07/04 00:44:07;;;;;;;27.13;24.40;;;18.40;99.90;;;;;;5058258;28;20830;-67
2021/07/04 00:46:35;;;;;;;30.47;26.20;;;18.20;99.90;;;;;;5057441;28;20485;-68
2021/07/04 00:49:02;;;;;;;26.60;24.40;;;18.10;99.90;;;;;;5053229;28;20466;-68
2021/07/04 00:51:30;;;;;;;25.87;23.57;;;18.00;99.90;;;;;;5059797;28;20464;-70
2021/07/04 00:53:58;;;;;;;28.73;26.17;;;18.00;99.90;;;;;;5055477;28;20485;-71
2021/07/04 00:56:26;;;;;;;28.03;25.63;;;17.90;99.90;;;;;;5056316;28;20463;-70
2021/07/04 00:58:53;;;;;;;24.93;23.03;;;17.70;99.90;;;;;;5057828;28;20458;-68
2021/07/04 01:01:20;;;;;;;28.90;25.83;;;17.60;99.90;;;;;;5054231;28;20466;-68
2021/07/04 01:03:46;;;;;;;30.43;27.63;;;17.60;99.90;;;;;;5054002;28;20749;-70
2021/07/04 01:06:14;;;;;;;27.23;25.23;;;17.60;99.90;;;;;;5053577;28;20530;-68
2021/07/04 01:08:41;;;;;;;28.77;26.10;;;17.60;99.90;;;;;;5055602;28;20459;-69
2021/07/04 01:11:10;;;;;;;29.83;26.60;;;17.50;99.90;;;;;;5058333;28;20490;-69
2021/07/04 01:13:37;;;;;;;28.87;26.37;;;17.40;99.90;;;;;;5057654;28;20521;-70
2021/07/04 01:16:05;;;;;;;30.10;27.40;;;17.30;99.90;;;;;;5049628;28;20463;-69
2021/07/04 01:18:33;;;;;;;28.87;26.00;;;17.20;99.90;;;;;;5053834;28;20470;-68
2021/07/04 01:21:04;;;;;;;29.50;26.67;;;17.10;99.90;;;;;;5052820;28;20471;-71
2021/07/04 01:23:34;;;;;;;28.80;26.50;;;17.10;99.90;;;;;;5056123;28;20976;-68
2021/07/04 01:26:02;;;;;;;31.77;28.80;;;17.10;99.90;;;;;;5057279;28;20955;-68
2021/07/04 01:28:30;;;;;;;29.03;26.53;;;17.10;99.90;;;;;;5055048;28;20481;-68
2021/07/04 01:30:59;;;;;;;30.60;28.03;;;17.20;99.90;;;;;;5054541;28;20486;-68
2021/07/04 01:33:27;;;;;;;31.10;28.40;;;17.10;99.90;;;;;;5052223;28;20491;-70
2021/07/04 01:35:54;;;;;;;33.93;30.57;;;17.20;99.90;;;;;;5055634;28;20474;-68
2021/07/04 01:38:21;;;;;;;31.10;28.50;;;17.20;99.90;;;;;;5057360;28;20459;-68
2021/07/04 01:40:53;;;;;;;33.67;30.53;;;17.40;99.90;;;;;;5057073;28;20462;-69
2021/07/04 01:43:20;;;;;;;29.93;27.13;;;17.40;99.90;;;;;;5052367;28;20463;-69
2021/07/04 01:45:49;;;;;;;29.50;26.80;;;17.50;99.90;;;;;;5055819;28;20958;-70
2021/07/04 01:48:18;;;;;;;28.63;26.33;;;17.50;99.90;;;;;;5057032;28;20464;-70
2021/07/04 01:50:47;;;;;;;30.27;27.20;;;17.60;99.90;;;;;;5057294;28;20483;-70
2021/07/04 01:53:16;;;;;;;29.70;27.00;;;17.70;99.90;;;;;;5055319;28;20480;-68
2021/07/04 01:55:43;;;;;;;30.27;27.47;;;17.70;99.90;;;;;;5054622;28;20463;-68
2021/07/04 01:58:11;;;;;;;28.77;26.20;;;17.70;99.90;;;;;;5052947;28;20968;-68
2021/07/04 02:00:39;;;;;;;31.57;28.73;;;17.70;99.90;;;;;;5054102;28;20451;-69
2021/07/04 02:03:08;;;;;;;29.47;26.60;;;17.80;99.90;;;;;;5056141;28;20464;-68
2021/07/04 02:05:36;;;;;;;32.77;29.90;;;17.70;99.90;;;;;;5053167;28;20462;-70
2021/07/04 02:08:04;;;;;;;31.37;28.40;;;17.80;99.90;;;;;;5056011;28;20467;-71
2021/07/04 02:10:33;;;;;;;29.80;26.87;;;17.80;99.90;;;;;;5049954;28;20467;-70
2021/07/04 02:13:01;;;;;;;29.90;27.27;;;17.80;99.90;;;;;;5055317;28;21004;-68
2021/07/04 02:15:32;;;;;;;29.77;27.47;;;17.70;99.90;;;;;;5051916;28;20821;-71
2021/07/04 02:18:04;;;;;;;28.93;26.60;;;17.80;99.90;;;;;;5054720;28;20464;-69
2021/07/04 02:20:35;;;;;;;27.37;25.20;;;17.90;99.90;;;;;;5054404;28;20470;-68
2021/07/04 02:23:05;;;;;;;31.10;26.47;;;17.90;99.90;;;;;;5052709;28;20463;-69
2021/07/04 02:25:31;;;;;;;30.87;27.90;;;17.90;99.90;;;;;;5047747;28;20455;-71
2021/07/04 02:28:00;;;;;;;28.60;26.20;;;18.00;99.90;;;;;;5053179;28;21000;-68
2021/07/04 02:30:27;;;;;;;29.67;27.20;;;17.90;99.90;;;;;;5051421;28;20487;-68
2021/07/04 02:32:56;;;;;;;30.33;27.43;;;18.00;99.90;;;;;;5055319;28;20451;-69
2021/07/04 02:35:24;;;;;;;30.00;27.03;;;18.00;99.90;;;;;;5052324;28;20462;-68
2021/07/04 02:37:53;;;;;;;30.77;27.83;;;18.10;99.90;;;;;;5053225;28;20466;-68
2021/07/04 02:40:21;;;;;;;29.70;26.57;;;18.00;99.90;;;;;;5055169;28;20483;-68
2021/07/04 02:42:51;;;;;;;29.10;26.80;;;18.10;99.90;;;;;;5055961;28;20453;-69
2021/07/04 02:45:18;;;;;;;30.73;28.03;;;18.10;99.90;;;;;;5054005;28;20474;-68
2021/07/04 02:47:46;;;;;;;29.87;27.23;;;18.20;99.90;;;;;;5051972;28;20459;-68
2021/07/04 02:50:20;;;;;;;29.40;26.90;;;18.20;99.90;;;;;;5052119;28;20466;-69
2021/07/04 02:52:47;;;;;;;28.13;25.50;;;18.30;99.90;;;;;;5049252;28;20466;-71
2021/07/04 02:55:14;;;;;;;28.50;25.70;;;18.30;99.90;;;;;;5057017;28;20458;-68
2021/07/04 02:57:41;;;;;;;27.73;25.43;;;18.30;99.90;;;;;;5056685;28;20464;-71
2021/07/04 03:00:11;;;;;;;25.77;23.47;;;18.30;99.90;;;;;;5054010;28;20462;-67
2021/07/04 03:02:41;;;;;;;26.17;24.07;;;18.40;99.90;;;;;;5047682;28;20475;-68
2021/07/04 03:05:10;;;;;;;25.33;23.20;;;18.40;99.90;;;;;;5053674;28;20479;-68
2021/07/04 03:07:39;;;;;;;27.57;24.77;;;18.40;99.90;;;;;;5055610;28;20504;-68
2021/07/04 03:10:08;;;;;;;28.77;25.90;;;18.40;99.90;;;;;;5050389;28;20824;-71
2021/07/04 03:12:36;;;;;;;27.87;25.57;;;18.30;99.90;;;;;;5052014;28;20473;-70
2021/07/04 03:15:04;;;;;;;29.03;26.13;;;18.20;99.90;;;;;;5056276;28;20576;-69
2021/07/04 03:17:31;;;;;;;29.03;26.40;;;18.20;99.90;;;;;;5051107;28;20460;-68
2021/07/04 03:19:58;;;;;;;29.07;26.27;;;18.20;99.90;;;;;;5050092;28;20463;-68
2021/07/04 03:22:25;;;;;;;30.80;28.00;;;18.20;99.90;;;;;;5050293;28;20468;-69
2021/07/04 03:24:54;;;;;;;31.33;28.33;;;18.00;99.90;;;;;;5055032;28;20470;-68
2021/07/04 03:27:22;;;;;;;32.53;29.03;;;17.80;99.90;;;;;;5054936;28;20455;-68
2021/07/04 03:29:50;;;;;;;33.47;30.17;;;17.60;99.90;;;;;;5052200;28;20918;-68
2021/07/04 03:32:16;;;;;;;32.53;29.13;;;17.60;99.90;;;;;;5053025;28;20494;-68
2021/07/04 03:34:44;;;;;;;31.80;28.67;;;17.60;99.90;;;;;;5049848;28;20480;-72
2021/07/04 03:37:11;;;;;;;31.73;28.87;;;17.80;99.90;;;;;;5050364;28;20467;-68
2021/07/04 03:39:37;;;;;;;31.53;28.13;;;17.90;99.90;;;;;;5050979;28;20488;-68
2021/07/04 03:42:06;;;;;;;29.70;27.10;;;17.90;99.90;;;;;;5051644;28;20462;-68
2021/07/04 03:44:33;;;;;;;29.20;26.53;;;18.00;99.90;;;;;;5051247;28;20460;-71
2021/07/04 03:46:59;;;;;;;34.40;27.13;;;18.00;99.90;;;;;;5047384;28;20467;-68
2021/07/04 03:49:26;;;;;;;31.10;28.10;;;18.00;99.90;;;;;;5052653;28;20466;-68
2021/07/04 03:51:54;;;;;;;36.27;28.93;;;18.00;99.90;;;;;;5055485;28;20463;-71
2021/07/04 03:54:22;;;;;;;30.77;27.97;;;18.00;99.90;;;;;;5056222;28;20506;-68
2021/07/04 03:56:49;;;;;;;29.43;26.60;;;18.00;99.90;;;;;;5052282;28;20466;-68
2021/07/04 03:59:17;;;;;;;29.73;26.73;;;18.00;99.90;;;;;;5050890;28;20465;-68
2021/07/04 04:01:44;;;;;;;26.83;24.27;;;18.10;99.90;;;;;;5044376;28;20854;-69
2021/07/04 04:04:10;;;;;;;31.23;28.00;;;18.00;99.90;;;;;;5051638;28;20463;-68
2021/07/04 04:06:37;;;;;;;30.50;27.60;;;18.00;99.90;;;;;;5052977;28;20467;-69
2021/07/04 04:09:05;;;;;;;29.50;26.70;;;18.00;99.90;;;;;;5052564;28;20451;-68
2021/07/04 04:11:32;;;;;;;27.93;25.07;;;17.90;99.90;;;;;;5052202;28;20467;-68
2021/07/04 04:13:59;;;;;;;29.90;26.93;;;17.80;99.90;;;;;;5057280;28;20485;-69
2021/07/04 04:16:27;;;;;;;29.00;26.03;;;17.80;99.90;;;;;;5053904;28;20455;-68
2021/07/04 04:18:54;;;;;;;31.30;27.93;;;17.80;99.90;;;;;;5055228;28;20456;-68
2021/07/04 04:21:21;;;;;;;31.73;28.50;;;17.70;99.90;;;;;;5057017;28;20546;-69
2021/07/04 04:23:49;;;;;;;29.53;26.63;;;17.70;99.90;;;;;;5054710;28;20474;-68
2021/07/04 04:26:15;;;;;;;38.97;28.50;;;17.60;99.90;;;;;;5059768;28;20481;-69
2021/07/04 04:28:43;;;;;;;30.27;27.63;;;17.70;99.90;;;;;;5055212;28;21171;-68
2021/07/04 04:31:09;;;;;;;31.57;28.30;;;17.70;99.90;;;;;;5056132;28;20953;-68
2021/07/04 04:33:38;;;;;;;29.97;27.10;;;17.70;99.90;;;;;;5054613;28;20944;-68
2021/07/04 04:36:05;;;;;;;30.57;27.43;;;17.80;99.90;;;;;;5053858;28;20473;-69
2021/07/04 04:38:32;;;;;;;30.33;27.60;;;17.70;99.90;;;;;;5054595;28;20542;-71
2021/07/04 04:40:59;;;;;;;30.70;27.60;;;17.70;99.90;;;;;;5053537;28;20512;-68
2021/07/04 04:43:28;;;;;;;34.83;29.47;;;17.70;99.90;;;;;;5055166;28;20936;-71
2021/07/04 04:45:57;;;;;;;30.90;28.20;;;17.70;99.90;;;;;;5054719;28;20501;-68
2021/07/04 04:48:26;;;;;;;32.87;29.70;;;17.70;99.90;;;;;;5054258;28;20796;-68
2021/07/04 04:50:56;;;;;;;33.60;30.43;;;17.80;99.90;;;;;;5054159;28;20562;-68
2021/07/04 04:53:23;;;;;;;31.30;28.37;;;17.80;99.90;;;;;;5052715;28;20468;-70
2021/07/04 04:55:50;;;;;;;31.67;28.60;;;17.80;99.90;;;;;;5057553;28;20474;-68
2021/07/04 04:58:17;;;;;;;29.90;27.13;;;17.90;99.90;;;;;;5054411;28;20495;-68
2021/07/04 05:00:46;;;;;;;30.77;27.60;;;18.00;99.90;;;;;;5053186;28;20770;-68
2021/07/04 05:03:13;;;;;;;29.17;26.17;;;18.00;99.90;;;;;;5055051;28;20537;-69
2021/07/04 05:05:40;;;;;;;30.70;27.33;;;18.00;99.90;;;;;;5053273;28;20474;-68
2021/07/04 05:08:09;;;;;;;29.87;26.97;;;18.00;99.90;;;;;;5053276;28;21087;-69
2021/07/04 05:10:36;;;;;;;32.37;28.80;;;18.00;99.90;;;;;;5057100;28;20865;-68
2021/07/04 05:13:03;;;;;;;30.17;27.23;;;18.10;99.90;;;;;;5051258;28;20452;-70
2021/07/04 05:15:30;;;;;;;28.40;25.40;;;18.20;99.90;;;;;;5051437;28;20997;-71
2021/07/04 05:17:58;;;;;;;27.70;25.30;;;18.40;99.90;;;;;;5051320;28;20470;-68
2021/07/04 05:20:25;;;;;;;27.60;24.93;;;18.50;99.90;;;;;;5051219;28;20474;-68
2021/07/04 05:22:51;;;;;;;27.47;24.97;;;18.70;99.90;;;;;;5058319;28;20475;-68
2021/07/04 05:25:20;;;;;;;25.43;23.23;;;18.90;99.90;;;;;;5049101;28;20468;-69
2021/07/04 05:27:47;;;;;;;26.53;23.87;;;19.00;99.90;;;;;;5055418;28;20473;-68
2021/07/04 05:30:16;;;;;;;27.10;24.50;;;19.10;99.90;;;;;;5051499;28;20812;-70
2021/07/04 05:32:43;;;;;;;25.47;23.17;;;19.20;99.90;;;;;;5052826;28;20962;-69
2021/07/04 05:35:11;;;;;;;27.47;24.73;;;19.40;99.90;;;;;;5053024;28;20497;-69
2021/07/04 05:37:38;;;;;;;26.17;23.53;;;19.60;99.90;;;;;;5051369;28;20463;-69
2021/07/04 05:40:12;;;;;;;26.30;24.00;;;19.80;99.90;;;;;;5055116;28;20575;-69
2021/07/04 05:42:40;;;;;;;25.80;23.43;;;20.00;99.90;;;;;;5054948;28;20464;-70
2021/07/04 05:45:11;;;;;;;27.20;24.37;;;20.20;99.90;;;;;;5053352;28;20609;-69
2021/07/04 05:47:39;;;;;;;25.47;23.07;;;20.20;99.90;;;;;;5054346;28;20462;-69
2021/07/04 05:50:07;;;;;;;24.47;21.87;;;20.20;99.90;;;;;;5056681;28;20448;-68
2021/07/04 05:52:34;;;;;;;25.63;23.10;;;20.40;99.90;;;;;;5049000;28;20478;-69
2021/07/04 05:55:02;;;;;;;24.50;22.30;;;20.50;99.90;;;;;;5047003;28;20495;-69
2021/07/04 05:57:30;;;;;;;23.00;21.23;;;20.50;99.90;;;;;;5047615;28;20464;-71
2021/07/04 05:59:58;;;;;;;25.93;23.70;;;20.40;99.90;;;;;;5051662;28;20467;-69
2021/07/04 06:02:25;;;;;;;24.50;22.40;;;20.40;99.90;;;;;;5043347;28;20564;-70
2021/07/04 06:04:52;;;;;;;24.57;22.27;;;20.30;99.90;;;;;;5051692;28;20554;-69
2021/07/04 06:07:20;;;;;;;24.67;22.57;;;20.30;99.90;;;;;;5048103;28;20479;-69
2021/07/04 06:09:47;;;;;;;23.80;21.47;;;20.20;99.90;;;;;;5048855;28;20464;-69
2021/07/04 06:12:14;;;;;;;27.17;24.47;;;20.30;99.90;;;;;;5047344;28;20490;-69
2021/07/04 06:14:41;;;;;;;25.60;23.00;;;20.40;99.90;;;;;;5043974;28;20481;-69
2021/07/04 06:17:10;;;;;;;25.40;23.00;;;20.20;99.90;;;;;;5046691;28;20947;-69
2021/07/04 06:19:37;;;;;;;23.90;21.73;;;20.50;99.90;;;;;;5043523;28;20479;-69
2021/07/04 06:22:04;;;;;;;23.80;21.70;;;20.60;99.90;;;;;;5046837;28;20460;-71
2021/07/04 06:24:31;;;;;;;28.10;25.53;;;20.50;99.90;;;;;;5044045;28;20479;-71
2021/07/04 06:26:58;;;;;;;31.03;26.83;;;20.50;99.90;;;;;;5045471;28;20467;-69
2021/07/04 06:29:24;;;;;;;31.60;23.90;;;20.60;99.90;;;;;;5047340;28;21018;-69
2021/07/04 06:31:51;;;;;;;25.70;23.30;;;20.70;99.90;;;;;;5052160;28;20459;-69
2021/07/04 06:34:20;;;;;;;26.97;24.37;;;20.50;99.90;;;;;;5043150;28;21005;-71
2021/07/04 06:36:47;;;;;;;25.17;22.90;;;20.70;99.90;;;;;;5053559;28;20455;-71
2021/07/04 06:39:15;;;;;;;26.47;24.07;;;20.90;99.90;;;;;;5049885;28;20488;-68
2021/07/04 06:41:43;;;;;;;25.77;23.47;;;21.10;99.90;;;;;;5044505;28;20466;-71
2021/07/04 06:44:10;;;;;;;25.80;23.03;;;21.40;99.90;;;;;;5048772;28;20471;-69
2021/07/04 06:46:37;;;;;;;23.80;21.80;;;21.50;99.90;;;;;;5052254;28;20460;-69
2021/07/04 06:49:04;;;;;;;23.73;21.83;;;21.40;99.90;;;;;;5052503;28;20466;-69
2021/07/04 06:51:32;;;;;;;22.17;20.37;;;21.30;99.90;;;;;;5051844;28;20459;-70
2021/07/04 06:53:59;;;;;;;24.93;22.63;;;21.40;99.90;;;;;;5042591;28;20469;-68
2021/07/04 06:56:26;;;;;;;25.13;22.43;;;21.30;99.90;;;;;;5051881;28;20488;-69
2021/07/04 06:58:53;;;;;;;23.23;21.40;;;21.20;99.90;;;;;;5048909;28;20797;-72
2021/07/04 07:01:20;;;;;;;23.23;20.93;;;21.40;99.90;;;;;;5052757;28;20474;-71
2021/07/04 07:03:47;;;;;;;22.80;20.47;;;21.40;99.90;;;;;;5054837;28;20463;-71
2021/07/04 07:06:14;;;;;;;22.60;20.70;;;21.60;99.90;;;;;;5054708;28;20486;-69
2021/07/04 07:08:44;;;;;;;20.80;19.40;;;21.50;99.90;;;;;;5050983;28;20455;-71
2021/07/04 07:11:11;;;;;;;20.17;18.57;;;21.40;99.90;;;;;;5047659;28;20456;-68
2021/07/04 07:13:38;;;;;;;20.27;18.80;;;21.40;99.90;;;;;;5050681;28;20460;-72
2021/07/04 07:16:05;;;;;;;20.97;19.20;;;21.50;99.90;;;;;;5050633;28;20574;-69
2021/07/04 07:18:32;;;;;;;19.30;17.90;;;21.50;99.90;;;;;;5050979;28;20464;-69
2021/07/04 07:20:59;;;;;;;20.90;19.20;;;21.80;99.90;;;;;;5048659;28;20554;-69
2021/07/04 07:23:26;;;;;;;20.00;18.50;;;21.90;99.90;;;;;;5051389;28;21053;-70
2021/07/04 07:25:55;;;;;;;19.87;18.47;;;21.90;99.90;;;;;;5054761;28;20835;-69
2021/07/04 07:28:22;;;;;;;20.47;18.93;;;21.90;99.90;;;;;;5054390;28;20553;-69
2021/07/04 07:30:50;;;;;;;20.73;19.23;;;21.90;99.90;;;;;;5044432;28;20483;-70
2021/07/04 07:33:17;;;;;;;22.13;20.10;;;21.90;99.90;;;;;;5051324;28;20462;-71
2021/07/04 07:35:45;;;;;;;20.87;19.30;;;22.10;99.90;;;;;;5048728;28;20807;-70
2021/07/04 07:38:12;;;;;;;22.00;20.40;;;22.30;99.90;;;;;;5051188;28;20463;-70
2021/07/04 07:40:39;;;;;;;23.00;21.30;;;22.00;99.90;;;;;;5051906;28;20495;-72
2021/07/04 07:43:09;;;;;;;21.97;20.33;;;21.90;99.90;;;;;;5043659;28;20456;-72
2021/07/04 07:45:39;;;;;;;23.40;21.60;;;22.00;99.90;;;;;;5048395;28;20464;-70
2021/07/04 07:48:06;;;;;;;22.53;20.73;;;22.10;99.90;;;;;;5054696;28;20534;-70
2021/07/04 07:50:33;;;;;;;22.03;20.43;;;22.20;99.90;;;;;;5057776;28;20826;-71
2021/07/04 07:53:00;;;;;;;21.37;19.77;;;22.30;99.90;;;;;;5054320;28;20476;-70
2021/07/04 07:55:27;;;;;;;21.10;19.30;;;22.60;99.90;;;;;;5052224;28;20497;-71
2021/07/04 07:57:54;;;;;;;21.87;19.90;;;22.80;99.90;;;;;;5052908;28;20463;-70
2021/07/04 08:00:23;;;;;;;20.50;19.10;;;22.80;99.90;;;;;;5054540;28;20466;-72
2021/07/04 08:02:50;;;;;;;19.70;18.30;;;22.90;99.90;;;;;;5057927;28;20468;-71
2021/07/04 08:05:17;;;;;;;19.17;17.77;;;23.30;99.90;;;;;;5054215;28;20468;-70
2021/07/04 08:07:45;;;;;;;19.60;17.70;;;24.00;99.90;;;;;;5058145;28;20809;-70
2021/07/04 08:10:13;;;;;;;17.33;16.13;;;24.70;99.90;;;;;;5054814;28;20466;-73
2021/07/04 08:12:40;;;;;;;17.53;16.23;;;25.10;99.90;;;;;;5055993;28;21184;-70
2021/07/04 08:15:09;;;;;;;16.70;15.30;;;26.00;99.90;;;;;;5052187;28;20483;-71
2021/07/04 08:17:37;;;;;;;16.90;15.67;;;26.20;99.90;;;;;;5049654;28;20488;-72
2021/07/04 08:20:06;;;;;;;16.17;15.17;;;26.20;99.90;;;;;;5058140;28;20459;-71
2021/07/04 08:22:33;;;;;;;16.90;15.80;;;25.70;99.90;;;;;;5050874;28;20459;-70
2021/07/04 08:25:01;;;;;;;16.77;15.80;;;25.50;99.90;;;;;;5050044;28;20483;-70
2021/07/04 08:27:28;;;;;;;17.03;15.73;;;25.40;99.90;;;;;;5052011;28;20494;-70
2021/07/04 08:29:57;;;;;;;16.67;15.27;;;25.10;99.90;;;;;;5052244;28;20529;-71
2021/07/04 08:32:24;;;;;;;16.80;15.67;;;25.80;99.90;;;;;;5051154;28;20475;-70
2021/07/04 08:34:52;;;;;;;17.30;16.10;;;26.60;99.90;;;;;;5050065;28;20980;-71
2021/07/04 08:37:19;;;;;;;16.87;15.77;;;27.40;99.90;;;;;;5056632;28;20970;-73
2021/07/04 08:39:46;;;;;;;17.73;16.20;;;28.10;99.90;;;;;;5052769;28;21043;-70
2021/07/04 08:42:13;;;;;;;17.83;16.70;;;28.60;99.90;;;;;;5053418;28;20460;-70
2021/07/04 08:44:47;;;;;;;18.50;17.40;;;28.90;99.90;;;;;;5050144;28;20463;-73
2021/07/04 08:47:16;;;;;;;17.03;16.03;;;29.60;99.90;;;;;;5043164;28;20458;-70
2021/07/04 08:49:43;;;;;;;17.47;16.47;;;29.90;99.90;;;;;;5036016;28;20464;-74
2021/07/04 08:52:11;;;;;;;16.93;15.83;;;29.70;99.90;;;;;;5016234;28;20474;-72
2021/07/04 08:54:38;;;;;;;17.50;16.50;;;30.10;99.90;;;;;;5025374;28;21404;-72
2021/07/04 08:57:08;;;;;;;18.10;17.00;;;30.40;99.90;;;;;;5026287;28;20491;-70
2021/07/04 08:59:36;;;;;;;18.27;16.93;;;30.80;99.90;;;;;;5019892;28;20466;-70
2021/07/04 09:02:04;;;;;;;18.33;17.20;;;32.20;99.90;;;;;;5027023;28;21531;-70
2021/07/04 09:04:31;;;;;;;18.23;17.10;;;32.30;99.90;;;;;;5026352;28;20462;-74
2021/07/04 09:06:59;;;;;;;18.50;17.60;;;31.70;99.90;;;;;;5027570;28;21294;-70
2021/07/04 09:09:29;;;;;;;16.90;16.00;;;30.90;99.90;;;;;;5026953;28;20497;-70
2021/07/04 09:12:02;;;;;;;17.57;16.63;;;30.80;99.90;;;;;;5027757;28;20455;-69
2021/07/04 09:14:35;;;;;;;16.73;15.73;;;30.20;99.90;;;;;;5028455;28;20460;-70
2021/07/04 09:17:04;;;;;;;18.77;17.57;;;29.70;99.90;;;;;;5030733;28;20514;-69
2021/07/04 09:19:31;;;;;;;17.60;16.60;;;28.70;99.90;;;;;;5047027;28;20469;-70
2021/07/04 09:22:00;;;;;;;18.70;17.53;;;28.00;99.90;;;;;;5044582;28;20844;-69
2021/07/04 09:24:33;;;;;;;17.77;16.60;;;27.60;99.90;;;;;;5047774;28;20464;-69
2021/07/04 09:26:59;;;;;;;17.50;16.33;;;27.10;99.90;;;;;;5044085;28;20491;-69
2021/07/04 09:29:41;;;;;;;17.87;16.90;;;26.80;99.90;;;;;;5042731;28;20519;-69
2021/07/04 09:32:14;;;;;;;17.00;15.93;;;26.10;99.90;;;;;;5041356;28;20467;-69
2021/07/04 09:34:42;;;;;;;17.33;16.20;;;25.80;99.90;;;;;;5040659;28;20460;-69
2021/07/04 09:37:09;;;;;;;17.03;16.00;;;26.20;99.90;;;;;;5042732;28;20476;-72
2021/07/04 09:39:38;;;;;;;18.50;17.20;;;27.00;99.90;;;;;;5044951;28;20493;-68
2021/07/04 09:42:08;;;;;;;17.30;16.30;;;27.70;99.90;;;;;;5049944;28;20464;-69
2021/07/04 09:44:36;;;;;;;16.60;15.50;;;27.90;99.90;;;;;;5048646;28;20471;-69
2021/07/04 09:47:16;;;;;;;16.90;15.90;;;28.70;99.90;;;;;;5045214;28;20466;-72
2021/07/04 09:49:45;;;;;;;16.40;15.37;;;29.20;99.90;;;;;;5048547;28;20976;-68
2021/07/04 09:52:14;;;;;;;16.33;15.43;;;30.00;99.90;;;;;;5047763;28;20906;-70
2021/07/04 09:54:54;;;;;;;17.47;16.30;;;30.90;99.90;;;;;;5046768;28;20471;-68
2021/07/04 09:57:21;;;;;;;16.83;15.73;;;31.20;99.90;;;;;;5050048;28;20492;-69
2021/07/04 09:59:48;;;;;;;17.10;16.10;;;32.00;99.90;;;;;;5041792;28;20461;-70
2021/07/04 10:02:16;;;;;;;16.83;15.93;;;32.90;99.90;;;;;;5043585;28;20467;-69
2021/07/04 10:04:43;;;;;;;17.53;16.63;;;33.70;99.90;;;;;;5048892;28;20834;-68
2021/07/04 10:07:10;;;;;;;17.43;16.33;;;32.50;99.90;;;;;;5043656;28;20474;-72
2021/07/04 10:09:40;;;;;;;16.27;15.47;;;32.20;99.90;;;;;;5048046;28;20467;-71
2021/07/04 10:12:09;;;;;;;16.10;15.10;;;32.30;99.90;;;;;;5041042;28;20573;-68
2021/07/04 10:14:37;;;;;;;16.80;15.90;;;32.50;99.80;;;;;;5042873;28;20831;-69
2021/07/04 10:17:04;;;;;;;17.13;15.83;;;32.80;99.20;;;;;;5046901;28;21041;-68
2021/07/04 10:19:33;;;;;;;16.70;15.80;;;32.70;99.20;;;;;;5045995;28;20978;-69
2021/07/04 10:22:02;;;;;;;17.20;16.17;;;33.30;99.10;;;;;;5046484;28;20553;-68
2021/07/04 10:24:29;;;;;;;16.63;15.80;;;34.60;97.90;;;;;;5042351;28;20463;-68
2021/07/04 10:26:58;;;;;;;18.00;17.00;;;35.40;95.80;;;;;;5043723;28;20502;-68
2021/07/04 10:29:28;;;;;;;19.87;18.57;;;34.30;97.00;;;;;;5049091;28;20504;-69
2021/07/04 10:31:55;;;;;;;20.60;19.30;;;33.70;97.80;;;;;;5048220;28;20456;-68
2021/07/04 10:34:27;;;;;;;20.13;18.67;;;32.40;99.50;;;;;;5052744;28;20466;-71
2021/07/04 10:36:59;;;;;;;19.43;17.80;;;31.00;99.90;;;;;;5045067;28;20494;-70
2021/07/04 10:39:26;;;;;;;19.17;17.80;;;29.90;99.90;;;;;;5037108;28;20491;-68
2021/07/04 10:41:55;;;;;;;16.80;15.87;;;29.30;99.90;;;;;;5036856;28;20845;-68
2021/07/04 10:44:39;;;;;;;15.77;14.87;;;29.00;99.90;;;;;;5043818;28;20471;-68
2021/07/04 10:47:12;;;;;;;16.40;15.10;;;29.00;99.90;;;;;;5046966;28;20834;-69
2021/07/04 10:50:07;;;;;;;15.40;14.40;;;29.50;99.90;;;;;;5043865;28;20916;-71
2021/07/04 10:52:40;;;;;;;15.60;14.70;;;30.70;99.90;;;;;;5043137;28;21283;-71
2021/07/04 10:55:10;;;;;;;16.60;15.70;;;30.90;99.90;;;;;;5046581;28;20467;-69
2021/07/04 10:57:54;;;;;;;17.17;16.10;;;31.40;99.90;;;;;;5044700;28;20494;-71
2021/07/04 11:00:26;;;;;;;18.93;17.83;;;31.90;99.90;;;;;;5037211;28;20495;-70
2021/07/04 11:02:56;;;;;;;18.20;17.20;;;32.40;99.90;;;;;;5045239;28;20465;-69
2021/07/04 11:05:48;;;;;;;17.57;16.40;;;31.80;99.90;;;;;;5051313;28;20459;-68
2021/07/04 11:08:21;;;;;;;17.27;16.20;;;31.10;99.90;;;;;;5050334;28;20470;-71
2021/07/04 11:11:03;;;;;;;15.70;14.80;;;30.30;99.90;;;;;;5037144;28;20551;-71
2021/07/04 11:13:45;;;;;;;16.93;15.83;;;29.70;99.90;;;;;;5034459;28;20460;-68
2021/07/04 11:16:16;;;;;;;17.50;16.50;;;29.40;99.90;;;;;;5038243;28;21034;-71
2021/07/04 11:18:47;;;;;;;16.00;15.00;;;28.90;99.90;;;;;;5042413;28;20827;-69
2021/07/04 11:21:15;;;;;;;17.43;16.30;;;28.40;99.90;;;;;;5043349;28;20810;-68
2021/07/04 11:23:43;;;;;;;16.70;15.60;;;28.20;99.90;;;;;;5039896;28;20466;-69
2021/07/04 11:26:19;;;;;;;16.77;15.67;;;27.30;99.90;;;;;;5043393;28;20465;-68
2021/07/04 11:28:48;;;;;;;15.80;14.73;;;27.20;99.90;;;;;;5042521;28;20538;-69
2021/07/04 11:31:30;;;;;;;15.93;14.70;;;27.10;99.90;;;;;;5039440;28;20484;-68
2021/07/04 11:34:02;;;;;;;26.70;16.63;;;26.90;99.90;;;;;;5041751;28;20467;-68
2021/07/04 11:36:30;;;;;;;24.37;22.67;;;26.70;99.90;;;;;;5035686;28;20960;-70
2021/07/04 11:38:59;;;;;;;26.30;24.57;;;26.30;99.90;;;;;;5038501;28;20596;-68
2021/07/04 11:41:29;;;;;;;91.67;35.17;;;25.60;99.90;;;;;;5016446;28;20464;-68
2021/07/04 11:43:59;;;;;;;27.57;25.60;;;25.00;99.90;;;;;;5013728;28;20454;-70
2021/07/04 11:46:29;;;;;;;27.17;25.27;;;23.80;99.90;;;;;;5017171;28;20619;-68
2021/07/04 11:49:04;;;;;;;27.07;25.07;;;22.40;99.90;;;;;;5010349;28;20578;-69
2021/07/04 11:51:34;;;;;;;25.77;23.97;;;21.20;99.90;;;;;;5012324;28;20473;-68
2021/07/04 11:54:05;;;;;;;22.90;21.40;;;20.60;99.90;;;;;;5012936;28;20476;-69
2021/07/04 11:56:32;;;;;;;22.20;20.80;;;20.40;99.90;;;;;;5014029;28;20489;-68
2021/07/04 11:59:24;;;;;;;21.10;19.80;;;20.40;99.90;;;;;;5015227;28;20464;-68
2021/07/04 12:01:53;;;;;;;20.60;19.40;;;20.50;99.90;;;;;;5007206;28;20469;-68
2021/07/04 12:04:31;;;;;;;20.20;19.00;;;20.10;99.90;;;;;;5015505;28;20475;-68
2021/07/04 12:07:04;;;;;;;20.70;19.50;;;20.00;99.90;;;;;;5018116;28;20959;-69
2021/07/04 12:09:45;;;;;;;19.53;18.43;;;19.80;99.90;;;;;;5010701;28;20834;-70
2021/07/04 12:12:21;;;;;;;17.67;16.77;;;19.70;99.90;;;;;;5017395;28;20563;-68
2021/07/04 12:14:49;;;;;;;16.87;16.07;;;20.00;99.90;;;;;;5018670;28;20465;-69
2021/07/04 12:17:31;;;;;;;16.60;15.80;;;20.20;99.90;;;;;;5014645;28;20485;-68
2021/07/04 12:20:12;;;;;;;17.60;16.70;;;20.00;99.90;;;;;;5016575;28;20460;-69
2021/07/04 12:22:42;;;;;;;17.77;16.90;;;19.90;99.90;;;;;;5016709;28;20955;-71
2021/07/04 12:25:17;;;;;;;18.00;17.10;;;19.80;99.90;;;;;;5012523;28;20473;-69
2021/07/04 12:27:46;;;;;;;18.20;17.30;;;19.80;99.90;;;;;;5012762;28;20460;-70
2021/07/04 12:30:19;;;;;;;18.20;17.30;;;19.70;99.90;;;;;;5016266;28;20484;-69
2021/07/04 12:32:49;;;;;;;24.57;22.80;;;19.80;99.90;;;;;;5019709;28;20496;-68
2021/07/04 12:35:27;;;;;;;24.23;22.63;;;19.70;99.90;;;;;;5018904;28;20463;-69
2021/07/04 12:37:56;;;;;;;17.10;16.30;;;19.60;99.90;;;;;;5016019;28;20579;-68